createdAt,value
2023-03-21T00:01:54.517Z,44.86
2023-03-21T00:04:58.512Z,44.97
2023-03-21T00:08:05.624Z,45.03
2023-03-21T00:11:09.703Z,45.06
2023-03-21T00:14:14.555Z,45.42
2023-03-21T00:17:17.454Z,45.37
2023-03-21T00:20:20.703Z,45.46
2023-03-21T00:23:22.816Z,45.78
2023-03-21T00:26:26.041Z,45.16
2023-03-21T00:29:28.236Z,45.47
2023-03-21T00:32:30.535Z,45.57
2023-03-21T00:36:06.736Z,46.17
2023-03-21T00:38:54.958Z,46.16
2023-03-21T00:41:57.147Z,46.04
2023-03-21T00:45:00.189Z,46.01
2023-03-21T00:48:02.386Z,45.94
2023-03-21T00:51:12.401Z,46.30
2023-03-21T00:54:14.610Z,45.72
2023-03-21T00:57:16.926Z,45.75
2023-03-21T01:00:20.560Z,46.02
2023-03-21T01:03:26.560Z,46.08
2023-03-21T01:06:28.769Z,45.94
2023-03-21T01:09:30.957Z,45.89
2023-03-21T01:12:33.463Z,45.87
2023-03-21T01:15:36.508Z,46.43
2023-03-21T01:18:40.369Z,46.55
2023-03-21T01:21:44.055Z,46.66
2023-03-21T01:24:55.084Z,46.31
2023-03-21T01:27:57.743Z,46.63
2023-03-21T01:31:02.250Z,46.68
2023-03-21T01:34:04.853Z,46.64
2023-03-21T01:37:07.234Z,46.64
2023-03-21T01:40:25.628Z,46.63
2023-03-21T01:43:37.009Z,46.22
2023-03-21T01:46:57.066Z,46.00
2023-03-21T01:50:23.934Z,45.96
2023-03-21T01:53:49.134Z,45.94
2023-03-21T01:56:54.502Z,46.09
2023-03-21T01:59:57.208Z,46.03
2023-03-21T02:03:11.471Z,45.85
2023-03-21T02:06:35.426Z,46.10
2023-03-21T02:09:49.468Z,46.04
2023-03-21T02:12:58.692Z,46.41
2023-03-21T02:16:34.692Z,46.71
2023-03-21T02:19:53.457Z,46.29
2023-03-21T02:23:43.297Z,46.42
2023-03-21T02:27:03.608Z,47.14
2023-03-21T02:30:42.514Z,46.67
2023-03-21T02:34:37.231Z,46.68
2023-03-21T02:38:00.678Z,46.50
2023-03-21T02:41:18.756Z,46.93
2023-03-21T02:44:45.330Z,46.87
2023-03-21T02:47:55.195Z,47.14
2023-03-21T02:50:59.380Z,46.79
2023-03-21T02:54:27.873Z,46.65
2023-03-21T02:57:40.037Z,47.34
2023-03-21T03:00:46.377Z,46.92
2023-03-21T03:03:57.389Z,46.55
2023-03-21T03:07:05.528Z,47.02
2023-03-21T03:10:10.910Z,46.91
2023-03-21T03:13:43.590Z,46.69
2023-03-21T03:17:03.200Z,46.94
2023-03-21T03:20:17.073Z,46.92
2023-03-21T03:23:28.680Z,46.79
2023-03-21T03:26:37.323Z,47.03
2023-03-21T03:29:41.794Z,46.81
2023-03-21T03:32:48.210Z,47.27
2023-03-21T03:36:04.402Z,47.13
2023-03-21T03:39:12.544Z,46.81
2023-03-21T03:42:28.402Z,47.10
2023-03-21T03:45:47.874Z,46.80
2023-03-21T03:48:56.938Z,46.84
2023-03-21T03:52:04.409Z,47.12
2023-03-21T03:55:14.943Z,47.41
2023-03-21T03:58:23.839Z,46.97
2023-03-21T04:01:29.222Z,47.01
2023-03-21T04:04:43.509Z,46.63
2023-03-21T04:07:46.816Z,46.87
2023-03-21T04:10:49.603Z,46.82
2023-03-21T04:13:52.446Z,47.15
2023-03-21T04:16:59.189Z,46.96
2023-03-21T04:20:11.654Z,46.67
2023-03-21T04:23:19.543Z,47.03
2023-03-21T04:26:24.431Z,46.97
2023-03-21T04:29:50.008Z,46.80
2023-03-21T04:33:05.179Z,47.05
2023-03-21T04:36:09.816Z,47.19
2023-03-21T04:39:17.258Z,47.03
2023-03-21T04:42:23.006Z,47.34
2023-03-21T04:45:25.306Z,46.89
2023-03-21T04:48:28.955Z,47.02
2023-03-21T04:51:32.065Z,46.99
2023-03-21T04:54:34.895Z,47.38
2023-03-21T04:57:38.603Z,47.66
2023-03-21T05:00:41.413Z,47.45
2023-03-21T05:03:43.698Z,47.35
2023-03-21T05:06:46.200Z,47.87
2023-03-21T05:09:48.425Z,47.52
2023-03-21T05:12:52.202Z,47.36
2023-03-21T05:15:54.542Z,47.29
2023-03-21T05:19:05.247Z,47.39
2023-03-21T05:22:14.336Z,46.82
2023-03-21T05:25:35.339Z,47.15
2023-03-21T05:28:48.026Z,46.84
2023-03-21T05:31:50.389Z,46.82
2023-03-21T05:34:52.715Z,46.71
2023-03-21T05:37:57.696Z,46.36
2023-03-21T05:41:02.107Z,46.40
2023-03-21T05:44:05.514Z,46.32
2023-03-21T05:47:08.623Z,46.08
2023-03-21T05:50:20.804Z,45.78
2023-03-21T05:53:39.828Z,45.81
2023-03-21T05:56:42.396Z,45.91
2023-03-21T05:59:47.595Z,45.46
2023-03-21T06:02:53.407Z,45.67
2023-03-21T06:06:22.688Z,45.78
2023-03-21T06:09:34.399Z,45.57
2023-03-21T06:12:39.045Z,45.66
2023-03-21T06:16:04.340Z,45.32
2023-03-21T06:19:09.311Z,45.49
2023-03-21T06:22:38.037Z,45.55
2023-03-21T06:25:41.305Z,45.57
2023-03-21T06:28:44.063Z,45.52
2023-03-21T06:31:46.406Z,45.39
2023-03-21T06:34:48.823Z,45.48
2023-03-21T06:37:51.636Z,45.62
2023-03-21T06:40:54.910Z,45.10
2023-03-21T06:44:00.030Z,44.96
2023-03-21T06:47:03.425Z,44.64
2023-03-21T06:50:07.074Z,42.14
2023-03-21T06:53:15.327Z,40.99
2023-03-21T06:56:43.652Z,40.43
2023-03-21T06:59:48.862Z,40.25
2023-03-21T07:02:54.979Z,40.24
2023-03-21T07:06:08.694Z,40.28
2023-03-21T07:09:18.392Z,40.04
2023-03-21T07:12:23.544Z,39.94
2023-03-21T07:15:58.600Z,39.72
2023-03-21T07:19:06.103Z,39.52
2023-03-21T07:22:08.467Z,39.88
2023-03-21T07:25:11.059Z,39.97
2023-03-21T07:28:17.248Z,39.96
2023-03-21T07:31:20.428Z,39.82
2023-03-21T07:34:23.981Z,39.81
2023-03-21T07:37:26.527Z,40.14
2023-03-21T07:40:28.761Z,39.66
2023-03-21T07:43:31.155Z,39.59
2023-03-21T07:46:34.294Z,39.39
2023-03-21T07:49:37.708Z,39.00
2023-03-21T07:52:39.969Z,38.66
2023-03-21T07:55:42.225Z,38.65
2023-03-21T07:58:44.400Z,38.00
2023-03-21T08:01:46.630Z,38.81
2023-03-21T08:04:49.052Z,39.17
2023-03-21T08:07:51.996Z,40.13
2023-03-21T08:10:54.305Z,40.40
2023-03-21T08:13:58.807Z,39.96
2023-03-21T08:17:01.103Z,39.78
2023-03-21T08:20:07.867Z,39.67
2023-03-21T08:23:10.406Z,39.34
2023-03-21T08:26:16.017Z,39.45
2023-03-21T08:29:18.253Z,39.17
2023-03-21T08:32:20.457Z,38.64
2023-03-21T08:35:22.677Z,38.47
2023-03-21T08:38:29.744Z,38.77
2023-03-21T08:41:32.947Z,38.28
2023-03-21T08:44:35.334Z,37.82
2023-03-21T08:47:37.711Z,38.13
2023-03-21T08:50:42.165Z,38.97
2023-03-21T08:53:44.458Z,38.71
2023-03-21T08:56:46.885Z,37.96
2023-03-21T08:59:55.155Z,38.65
2023-03-21T09:02:59.246Z,38.64
2023-03-21T09:06:02.973Z,39.79
2023-03-21T09:09:07.583Z,39.71
2023-03-21T09:12:10.229Z,38.38
2023-03-21T09:15:13.134Z,39.23
2023-03-21T09:18:18.165Z,39.53
2023-03-21T09:21:21.476Z,39.05
2023-03-21T09:24:24.231Z,38.81
2023-03-21T09:27:28.152Z,37.23
2023-03-21T09:30:36.174Z,38.45
2023-03-21T09:33:41.591Z,37.99
2023-03-21T09:36:48.314Z,37.01
2023-03-21T09:39:55.862Z,36.39
2023-03-21T09:43:04.459Z,38.04
2023-03-21T09:46:37.181Z,38.26
2023-03-21T09:50:07.524Z,37.13
2023-03-21T09:53:31.392Z,37.79
2023-03-21T09:56:36.579Z,36.39
2023-03-21T09:59:46.789Z,38.09
2023-03-21T10:02:56.245Z,37.29
2023-03-21T10:06:01.169Z,37.40
2023-03-21T10:09:12.684Z,38.67
2023-03-21T10:12:30.855Z,37.31
2023-03-21T10:15:35.915Z,38.27
2023-03-21T10:18:38.988Z,38.29
2023-03-21T10:22:03.752Z,36.77
2023-03-21T10:25:09.035Z,38.26
2023-03-21T10:28:23.554Z,36.57
2023-03-21T10:31:28.427Z,36.31
2023-03-21T10:34:33.738Z,36.51
2023-03-21T10:37:36.471Z,37.67
2023-03-21T10:40:40.704Z,36.06
2023-03-21T10:43:53.564Z,35.93
2023-03-21T10:46:58.326Z,36.09
2023-03-21T10:50:12.148Z,36.05
2023-03-21T10:53:29.648Z,35.95
2023-03-21T10:56:39.277Z,36.63
2023-03-21T10:59:47.703Z,36.01
2023-03-21T11:02:52.240Z,36.71
2023-03-21T11:05:57.291Z,36.04
2023-03-21T11:09:13.206Z,37.63
2023-03-21T11:12:38.828Z,35.79
2023-03-21T11:15:48.858Z,34.97
2023-03-21T11:18:52.989Z,35.13
2023-03-21T11:21:57.554Z,35.14
2023-03-21T11:25:01.271Z,34.85
2023-03-21T11:28:12.589Z,35.65
2023-03-21T11:31:17.049Z,34.61
2023-03-21T11:34:28.999Z,35.08
2023-03-21T11:37:55.290Z,35.21
2023-03-21T11:41:01.971Z,34.31
2023-03-21T11:44:04.489Z,33.88
2023-03-21T11:47:09.556Z,34.43
2023-03-21T11:50:27.124Z,34.61
2023-03-21T11:54:19.521Z,34.75
2023-03-21T11:57:42.679Z,33.94
2023-03-21T12:01:13.157Z,33.44
2023-03-21T12:04:15.551Z,33.17
2023-03-21T12:07:36.729Z,34.09
2023-03-21T12:11:13.807Z,33.08
2023-03-21T12:14:34.818Z,33.19
2023-03-21T12:18:04.025Z,33.26
2023-03-21T12:21:30.513Z,33.05
2023-03-21T12:24:43.453Z,32.05
2023-03-21T12:28:03.655Z,32.04
2023-03-21T12:31:12.144Z,31.94
2023-03-21T12:34:19.725Z,32.89
2023-03-21T12:37:55.503Z,32.74
2023-03-21T12:41:33.774Z,32.49
2023-03-21T12:44:39.213Z,31.18
2023-03-21T12:47:43.148Z,31.21
2023-03-21T12:50:46.174Z,31.12
2023-03-21T12:53:53.316Z,30.96
2023-03-21T12:57:10.054Z,30.96
2023-03-21T13:00:24.937Z,31.16
2023-03-21T13:03:41.951Z,31.24
2023-03-21T13:06:44.812Z,31.55
2023-03-21T13:09:47.062Z,31.33
2023-03-21T13:13:09.917Z,31.52
2023-03-21T13:16:27.522Z,31.79
2023-03-21T13:19:42.514Z,31.96
2023-03-21T13:22:45.777Z,32.25
2023-03-21T13:25:50.088Z,31.95
2023-03-21T13:28:52.484Z,32.49
2023-03-21T13:31:57.532Z,32.58
2023-03-21T13:35:21.560Z,33.09
2023-03-21T13:38:28.686Z,32.73
2023-03-21T13:41:30.831Z,33.51
2023-03-21T13:44:39.649Z,32.00
2023-03-21T13:47:52.349Z,32.10
2023-03-21T13:51:05.597Z,31.71
2023-03-21T13:54:07.680Z,30.50
2023-03-21T13:57:23.435Z,30.56
2023-03-21T14:00:30.919Z,30.78
2023-03-21T14:03:34.500Z,30.72
2023-03-21T14:07:07.253Z,30.32
2023-03-21T14:10:20.131Z,30.80
2023-03-21T14:13:25.230Z,30.64
2023-03-21T14:16:33.256Z,30.56
2023-03-21T14:19:35.517Z,30.77
2023-03-21T14:22:39.365Z,30.59
2023-03-21T14:25:47.506Z,30.47
2023-03-21T14:28:53.040Z,30.34
2023-03-21T14:31:56.408Z,30.29
2023-03-21T14:35:01.102Z,30.34
2023-03-21T14:38:09.327Z,29.66
2023-03-21T14:41:25.318Z,29.18
2023-03-21T14:44:41.051Z,28.93
2023-03-21T14:48:04.157Z,28.89
2023-03-21T14:51:10.924Z,29.07
2023-03-21T14:54:17.712Z,28.92
2023-03-21T14:57:24.966Z,29.02
2023-03-21T15:00:29.818Z,28.97
2023-03-21T15:03:32.738Z,28.70
2023-03-21T15:06:51.934Z,28.72
2023-03-21T15:10:04.723Z,28.62
2023-03-21T15:13:16.240Z,28.71
2023-03-21T15:16:19.172Z,29.20
2023-03-21T15:19:26.237Z,29.26
2023-03-21T15:22:37.418Z,29.10
2023-03-21T15:25:40.069Z,28.88
2023-03-21T15:28:45.537Z,28.78
2023-03-21T15:31:48.340Z,28.81
2023-03-21T15:34:52.292Z,28.39
2023-03-21T15:37:58.573Z,28.73
2023-03-21T15:41:19.065Z,28.53
2023-03-21T15:44:22.184Z,28.87
2023-03-21T15:47:41.130Z,28.88
2023-03-21T15:50:51.734Z,29.18
2023-03-21T15:53:54.326Z,29.59
2023-03-21T15:57:01.332Z,29.69
2023-03-21T16:00:19.900Z,30.02
2023-03-21T16:03:28.348Z,29.71
2023-03-21T16:06:35.659Z,29.77
2023-03-21T16:09:44.053Z,30.29
2023-03-21T16:12:46.239Z,30.26
2023-03-21T16:15:48.483Z,30.49
2023-03-21T16:18:51.597Z,30.39
2023-03-21T16:21:53.809Z,30.18
2023-03-21T16:24:56.001Z,30.10
2023-03-21T16:27:58.247Z,30.38
2023-03-21T16:31:00.846Z,30.53
2023-03-21T16:34:05.103Z,31.09
2023-03-21T16:37:10.428Z,30.84
2023-03-21T16:40:18.259Z,31.14
2023-03-21T16:43:20.878Z,31.70
2023-03-21T16:46:25.406Z,31.91
2023-03-21T16:49:27.646Z,31.76
2023-03-21T16:52:29.890Z,32.02
2023-03-21T16:55:33.500Z,32.28
2023-03-21T16:58:35.812Z,32.11
2023-03-21T17:01:40.244Z,32.67
2023-03-21T17:04:43.070Z,32.71
2023-03-21T17:07:47.096Z,33.01
2023-03-21T17:10:49.373Z,33.26
2023-03-21T17:13:53.820Z,33.63
2023-03-21T17:16:56.160Z,33.28
2023-03-21T17:19:58.454Z,33.96
2023-03-21T17:23:01.409Z,34.09
2023-03-21T17:26:03.692Z,33.74
2023-03-21T17:29:06.133Z,33.82
2023-03-21T17:32:08.388Z,34.06
2023-03-21T17:35:10.606Z,34.28
2023-03-21T17:38:16.735Z,34.36
2023-03-21T17:41:20.306Z,34.38
2023-03-21T17:44:22.576Z,33.90
2023-03-21T17:47:25.699Z,34.33
2023-03-21T17:50:34.250Z,34.46
2023-03-21T17:53:36.461Z,34.75
2023-03-21T17:56:41.831Z,34.71
2023-03-21T17:59:44.266Z,35.18
2023-03-21T18:02:47.376Z,35.26
2023-03-21T18:05:49.563Z,35.12
2023-03-21T18:08:53.075Z,35.05
2023-03-21T18:11:55.329Z,35.30
2023-03-21T18:14:57.614Z,35.34
2023-03-21T18:17:59.872Z,35.46
2023-03-21T18:21:02.423Z,35.65
2023-03-21T18:24:05.243Z,35.81
2023-03-21T18:27:08.758Z,35.60
2023-03-21T18:30:32.777Z,35.71
2023-03-21T18:33:40.211Z,35.62
2023-03-21T18:36:42.759Z,35.65
2023-03-21T18:39:45.560Z,35.98
2023-03-21T18:43:41.432Z,35.87
2023-03-21T18:46:10.367Z,35.90
2023-03-21T18:52:38.283Z,35.91
2023-03-21T18:55:46.043Z,36.61
2023-03-21T18:58:48.886Z,36.19
2023-03-21T19:01:51.478Z,36.05
2023-03-21T19:04:54.091Z,36.01
2023-03-21T19:07:56.386Z,36.16
2023-03-21T19:11:03.352Z,36.44
2023-03-21T19:14:12.145Z,36.52
2023-03-21T19:20:38.319Z,36.37
2023-03-21T19:24:16.329Z,36.93
2023-03-21T19:27:03.184Z,37.04
2023-03-21T19:30:14.319Z,36.70
2023-03-21T19:33:19.909Z,36.55
2023-03-21T19:36:23.412Z,37.09
2023-03-21T19:39:26.114Z,36.84
2023-03-21T19:42:30.693Z,36.88
2023-03-21T19:45:33.267Z,37.23
2023-03-21T19:48:38.011Z,37.20
2023-03-21T19:51:40.749Z,37.27
2023-03-21T19:54:43.267Z,37.40
2023-03-21T19:57:48.651Z,37.38
2023-03-21T20:00:50.916Z,37.34
2023-03-21T20:03:53.739Z,37.33
2023-03-21T20:06:58.188Z,37.63
2023-03-21T20:10:00.636Z,37.57
2023-03-21T20:13:02.890Z,37.75
2023-03-21T20:16:05.269Z,37.48
2023-03-21T20:19:10.198Z,37.66
2023-03-21T20:22:24.613Z,37.58
2023-03-21T20:25:31.186Z,37.89
2023-03-21T20:28:33.472Z,37.67
2023-03-21T20:31:35.783Z,37.92
2023-03-21T20:34:38.331Z,37.57
2023-03-21T20:37:47.922Z,37.78
2023-03-21T20:40:50.107Z,37.58
2023-03-21T20:47:16.514Z,37.80
2023-03-21T20:50:22.047Z,37.81
2023-03-21T20:53:25.027Z,38.03
2023-03-21T20:56:27.291Z,38.06
2023-03-21T20:59:29.714Z,38.16
2023-03-21T21:02:32.087Z,38.03
2023-03-21T21:05:34.976Z,37.92
2023-03-21T21:08:38.135Z,38.04
2023-03-21T21:12:05.491Z,38.26
2023-03-21T21:15:03.052Z,38.06
2023-03-21T21:18:07.440Z,37.89
2023-03-21T21:21:10.127Z,38.17
2023-03-21T21:24:14.571Z,37.98
2023-03-21T21:27:17.061Z,38.34
2023-03-21T21:30:19.284Z,38.34
2023-03-21T21:33:22.382Z,38.48
2023-03-21T21:36:24.558Z,38.40
2023-03-21T21:39:27.563Z,38.48
2023-03-21T21:42:29.729Z,38.42
2023-03-21T21:45:32.192Z,38.59
2023-03-21T21:48:34.408Z,38.63
2023-03-21T21:51:36.689Z,38.87
2023-03-21T21:54:45.476Z,39.06
2023-03-21T21:57:50.313Z,39.16
2023-03-21T22:00:52.575Z,39.39
2023-03-21T22:03:57.702Z,39.29
2023-03-21T22:06:59.897Z,39.54
2023-03-21T22:10:02.016Z,39.53
2023-03-21T22:13:04.381Z,39.46
2023-03-21T22:16:06.983Z,39.55
2023-03-21T22:19:09.271Z,39.63
2023-03-21T22:22:11.511Z,39.52
2023-03-21T22:25:15.374Z,39.53
2023-03-21T22:28:17.941Z,39.52
2023-03-21T22:31:20.947Z,39.42
2023-03-21T22:34:26.044Z,39.04
2023-03-21T22:37:29.316Z,39.15
2023-03-21T22:40:31.478Z,39.21
2023-03-21T22:43:34.471Z,39.33
2023-03-21T22:46:36.725Z,39.35
2023-03-21T22:49:40.216Z,39.49
2023-03-21T22:52:42.471Z,40.09
2023-03-21T22:55:44.584Z,39.85
2023-03-21T22:58:46.801Z,40.00
2023-03-21T23:01:49.293Z,39.85
2023-03-21T23:04:51.505Z,40.16
2023-03-21T23:07:54.006Z,40.18
2023-03-21T23:10:56.394Z,40.05
2023-03-21T23:14:07.694Z,40.37
2023-03-21T23:17:12.483Z,40.55
2023-03-21T23:20:14.825Z,40.42
2023-03-21T23:23:17.336Z,40.66
2023-03-21T23:26:21.745Z,40.40
2023-03-21T23:29:23.934Z,40.35
2023-03-21T23:32:26.166Z,40.83
2023-03-21T23:35:28.407Z,40.73
2023-03-21T23:38:31.148Z,41.00
2023-03-21T23:41:33.441Z,40.85
2023-03-21T23:44:35.698Z,41.26
2023-03-21T23:47:37.942Z,41.13
2023-03-21T23:50:40.488Z,41.07
2023-03-21T23:53:44.434Z,41.58
2023-03-21T23:56:46.741Z,41.36
2023-03-21T23:59:48.984Z,41.69
